createdAt,value
2022-12-31T00:01:27.814Z,101238.72
2022-12-31T00:11:32.850Z,101226.47
2022-12-31T00:21:36.316Z,101225.91
2022-12-31T00:31:40.929Z,101237.13
2022-12-31T00:41:44.838Z,101239.56
2022-12-31T00:51:49.373Z,101256.97
2022-12-31T01:01:52.681Z,101269.88
2022-12-31T01:11:57.302Z,101267.94
2022-12-31T01:22:00.383Z,101272.38
2022-12-31T01:32:05.327Z,101271.50
2022-12-31T01:42:11.573Z,101267.16
2022-12-31T01:52:19.563Z,101288.84
2022-12-31T02:02:22.830Z,101291.56
2022-12-31T02:12:27.412Z,101281.00
2022-12-31T02:22:44.238Z,101277.56
2022-12-31T02:33:02.635Z,101265.62
2022-12-31T02:43:06.138Z,101298.37
2022-12-31T02:53:21.659Z,101298.25
2022-12-31T03:03:25.321Z,101285.53
2022-12-31T03:13:29.769Z,101258.72
2022-12-31T03:23:35.424Z,101264.47
2022-12-31T03:33:41.212Z,101279.38
2022-12-31T03:43:44.297Z,101278.25
2022-12-31T03:53:48.763Z,101256.00
2022-12-31T04:03:51.823Z,101277.50
2022-12-31T04:13:56.257Z,101267.81
2022-12-31T04:23:59.393Z,101268.84
2022-12-31T04:34:03.920Z,101275.59
2022-12-31T04:44:07.002Z,101302.50
2022-12-31T04:54:11.496Z,101304.31
2022-12-31T05:04:14.601Z,101332.03
2022-12-31T05:14:19.275Z,101335.34
2022-12-31T05:24:22.361Z,101345.63
2022-12-31T05:34:26.907Z,101344.03
2022-12-31T05:44:30.018Z,101362.37
2022-12-31T05:54:34.765Z,101348.44
2022-12-31T06:04:37.877Z,101363.47
2022-12-31T06:14:45.534Z,101369.13
2022-12-31T06:24:49.078Z,101378.91
2022-12-31T06:34:53.470Z,101364.16
2022-12-31T06:44:56.719Z,101383.31
2022-12-31T06:55:01.979Z,101383.25
2022-12-31T07:05:20.534Z,101394.56
2022-12-31T07:15:38.148Z,101422.22
2022-12-31T07:25:42.618Z,101407.72
2022-12-31T07:35:53.824Z,101415.53
2022-12-31T07:46:03.813Z,101417.59
2022-12-31T07:56:10.156Z,101428.97
2022-12-31T08:06:18.479Z,101439.50
2022-12-31T08:16:23.663Z,101449.34
2022-12-31T08:26:34.356Z,101441.25
2022-12-31T08:36:45.623Z,101453.19
2022-12-31T08:46:54.145Z,101479.41
2022-12-31T08:57:06.667Z,101477.91
2022-12-31T09:07:12.024Z,101498.25
2022-12-31T09:17:33.495Z,101505.38
2022-12-31T09:27:41.358Z,101480.44
2022-12-31T09:37:48.313Z,101472.97
2022-12-31T09:48:16.721Z,101459.97
2022-12-31T09:58:31.580Z,101434.34
2022-12-31T10:08:51.098Z,101424.53
2022-12-31T10:19:15.404Z,101442.75
2022-12-31T10:29:26.073Z,101440.94
2022-12-31T10:39:45.249Z,101419.75
2022-12-31T10:50:21.208Z,101431.59
2022-12-31T11:00:28.704Z,101431.25
2022-12-31T11:11:03.290Z,101438.53
2022-12-31T11:21:28.565Z,101436.72
2022-12-31T11:31:47.645Z,101431.38
2022-12-31T11:41:54.886Z,101416.34
2022-12-31T11:52:39.933Z,101418.06
2022-12-31T12:02:47.240Z,101416.94
2022-12-31T12:12:50.358Z,101423.91
2022-12-31T12:22:57.607Z,101428.53
2022-12-31T12:33:02.043Z,101414.09
2022-12-31T12:43:06.936Z,101410.28
2022-12-31T12:53:21.426Z,101414.97
2022-12-31T13:04:23.820Z,101407.16
2022-12-31T13:14:18.909Z,101399.53
2022-12-31T13:24:41.498Z,101399.69
2022-12-31T13:34:47.349Z,101404.03
2022-12-31T13:44:54.935Z,101410.06
2022-12-31T13:55:03.211Z,101419.75
2022-12-31T14:05:15.557Z,101430.03
2022-12-31T14:15:24.061Z,101429.19
2022-12-31T14:25:31.971Z,101434.41
2022-12-31T14:35:44.292Z,101423.56
2022-12-31T14:45:57.253Z,101447.78
2022-12-31T14:56:02.049Z,101408.22
2022-12-31T15:06:31.198Z,101430.44
2022-12-31T15:16:43.253Z,101463.31
2022-12-31T15:26:51.715Z,101432.06
2022-12-31T15:36:57.193Z,101461.34
2022-12-31T15:47:09.787Z,101464.88
2022-12-31T15:57:16.288Z,101479.78
2022-12-31T16:07:20.956Z,101475.03
2022-12-31T16:17:28.938Z,101454.97
2022-12-31T16:27:36.027Z,101482.56
2022-12-31T16:37:40.299Z,101460.37
2022-12-31T16:47:44.912Z,101479.97
2022-12-31T16:57:53.944Z,101488.28
2022-12-31T17:07:58.484Z,101482.66
2022-12-31T17:18:03.661Z,101480.53
2022-12-31T17:28:18.504Z,101489.69
2022-12-31T17:38:39.301Z,101510.31
2022-12-31T17:48:45.070Z,101495.28
2022-12-31T17:58:50.084Z,101494.66
2022-12-31T18:08:54.591Z,101496.94
2022-12-31T18:18:59.185Z,101490.91
2022-12-31T18:29:13.498Z,101516.69
2022-12-31T18:39:16.593Z,101536.53
2022-12-31T18:49:21.133Z,101544.34
2022-12-31T18:59:24.168Z,101542.03
2022-12-31T19:09:45.147Z,101546.81
2022-12-31T19:19:49.701Z,101544.53
2022-12-31T19:29:54.176Z,101535.63
2022-12-31T19:39:57.333Z,101537.16
2022-12-31T19:50:02.268Z,101526.34
2022-12-31T20:00:06.488Z,101508.37
2022-12-31T20:10:11.892Z,101520.81
2022-12-31T20:20:14.960Z,101514.63
2022-12-31T20:30:20.905Z,101511.00
2022-12-31T20:40:24.050Z,101519.13
2022-12-31T20:50:28.515Z,101526.91
2022-12-31T21:00:31.710Z,101521.47
2022-12-31T21:10:36.206Z,101522.28
2022-12-31T21:20:39.266Z,101535.13
2022-12-31T21:30:44.421Z,101531.56
2022-12-31T21:40:47.728Z,101551.28
2022-12-31T21:50:53.879Z,101554.78
2022-12-31T22:01:15.034Z,101564.75
2022-12-31T22:11:22.043Z,101552.78
2022-12-31T22:21:26.596Z,101562.13
2022-12-31T22:31:31.534Z,101552.66
2022-12-31T22:41:35.149Z,101548.63
2022-12-31T22:51:57.578Z,101536.38
2022-12-31T23:02:02.837Z,101547.91
2022-12-31T23:12:08.524Z,101545.66
2022-12-31T23:22:28.842Z,101540.06
2022-12-31T23:32:33.399Z,101539.69
2022-12-31T23:42:36.625Z,101520.72
2022-12-31T23:52:44.201Z,101536.69
